sensor_id;sensor_type;location;lat;lon;timestamp;P1;durP1;ratioP1;P2;durP2;ratioP2
72127;SDS011;60000;51.030;7.024;2022-12-07T00:00:48;15.53;;;7.60;;
72127;SDS011;60000;51.030;7.024;2022-12-07T00:03:13;16.97;;;8.03;;
72127;SDS011;60000;51.030;7.024;2022-12-07T00:05:39;18.20;;;7.82;;
72127;SDS011;60000;51.030;7.024;2022-12-07T00:08:04;14.00;;;6.45;;
72127;SDS011;60000;51.030;7.024;2022-12-07T00:10:29;16.60;;;8.23;;
72127;SDS011;60000;51.030;7.024;2022-12-07T00:12:54;18.33;;;8.70;;
72127;SDS011;60000;51.030;7.024;2022-12-07T00:15:20;17.13;;;7.43;;
72127;SDS011;60000;51.030;7.024;2022-12-07T00:17:45;16.77;;;7.70;;
72127;SDS011;60000;51.030;7.024;2022-12-07T00:20:10;12.37;;;6.00;;
72127;SDS011;60000;51.030;7.024;2022-12-07T00:22:36;17.27;;;8.33;;
72127;SDS011;60000;51.030;7.024;2022-12-07T00:25:01;14.80;;;7.53;;
72127;SDS011;60000;51.030;7.024;2022-12-07T00:27:27;15.57;;;7.67;;
72127;SDS011;60000;51.030;7.024;2022-12-07T00:29:52;17.13;;;7.93;;
72127;SDS011;60000;51.030;7.024;2022-12-07T00:32:17;18.63;;;8.80;;
72127;SDS011;60000;51.030;7.024;2022-12-07T00:34:43;14.80;;;7.50;;
72127;SDS011;60000;51.030;7.024;2022-12-07T00:37:08;17.50;;;7.87;;
72127;SDS011;60000;51.030;7.024;2022-12-07T00:39:33;15.87;;;7.47;;
72127;SDS011;60000;51.030;7.024;2022-12-07T00:41:59;21.97;;;9.17;;
72127;SDS011;60000;51.030;7.024;2022-12-07T00:44:24;17.30;;;8.40;;
72127;SDS011;60000;51.030;7.024;2022-12-07T00:46:49;18.57;;;8.80;;
72127;SDS011;60000;51.030;7.024;2022-12-07T00:49:14;18.40;;;8.88;;
72127;SDS011;60000;51.030;7.024;2022-12-07T00:51:40;16.10;;;7.87;;
72127;SDS011;60000;51.030;7.024;2022-12-07T00:54:05;15.27;;;7.67;;
72127;SDS011;60000;51.030;7.024;2022-12-07T00:56:30;18.93;;;8.20;;
72127;SDS011;60000;51.030;7.024;2022-12-07T00:58:57;22.00;;;10.27;;
72127;SDS011;60000;51.030;7.024;2022-12-07T01:01:24;16.15;;;7.30;;
72127;SDS011;60000;51.030;7.024;2022-12-07T01:03:51;16.58;;;7.85;;
72127;SDS011;60000;51.030;7.024;2022-12-07T01:06:18;17.90;;;7.70;;
72127;SDS011;60000;51.030;7.024;2022-12-07T01:08:44;17.92;;;7.75;;
72127;SDS011;60000;51.030;7.024;2022-12-07T01:11:11;16.17;;;7.60;;
72127;SDS011;60000;51.030;7.024;2022-12-07T01:13:38;18.58;;;7.93;;
72127;SDS011;60000;51.030;7.024;2022-12-07T01:16:04;16.23;;;7.70;;
72127;SDS011;60000;51.030;7.024;2022-12-07T01:18:32;18.98;;;8.63;;
72127;SDS011;60000;51.030;7.024;2022-12-07T01:23:33;17.90;;;7.78;;
72127;SDS011;60000;51.030;7.024;2022-12-07T01:26:00;13.43;;;6.72;;
72127;SDS011;60000;51.030;7.024;2022-12-07T01:28:27;15.77;;;7.80;;
72127;SDS011;60000;51.030;7.024;2022-12-07T01:31:00;17.10;;;8.10;;
72127;SDS011;60000;51.030;7.024;2022-12-07T01:33:28;17.35;;;7.95;;
72127;SDS011;60000;51.030;7.024;2022-12-07T01:36:00;19.55;;;7.70;;
72127;SDS011;60000;51.030;7.024;2022-12-07T01:38:26;18.27;;;10.07;;
72127;SDS011;60000;51.030;7.024;2022-12-07T01:40:55;18.57;;;8.23;;
72127;SDS011;60000;51.030;7.024;2022-12-07T01:43:21;19.20;;;8.63;;
72127;SDS011;60000;51.030;7.024;2022-12-07T01:45:48;17.30;;;8.20;;
72127;SDS011;60000;51.030;7.024;2022-12-07T01:48:14;19.93;;;9.00;;
72127;SDS011;60000;51.030;7.024;2022-12-07T01:50:43;18.23;;;8.82;;
72127;SDS011;60000;51.030;7.024;2022-12-07T01:53:13;17.77;;;9.73;;
72127;SDS011;60000;51.030;7.024;2022-12-07T01:55:40;23.27;;;9.63;;
72127;SDS011;60000;51.030;7.024;2022-12-07T01:58:08;17.00;;;8.50;;
72127;SDS011;60000;51.030;7.024;2022-12-07T02:00:35;18.38;;;8.27;;
72127;SDS011;60000;51.030;7.024;2022-12-07T02:03:04;18.67;;;8.63;;
72127;SDS011;60000;51.030;7.024;2022-12-07T02:05:34;19.77;;;8.50;;
72127;SDS011;60000;51.030;7.024;2022-12-07T02:08:02;19.23;;;9.02;;
72127;SDS011;60000;51.030;7.024;2022-12-07T02:10:29;18.33;;;8.43;;
72127;SDS011;60000;51.030;7.024;2022-12-07T02:12:56;20.77;;;9.18;;
72127;SDS011;60000;51.030;7.024;2022-12-07T02:15:26;19.63;;;9.77;;
72127;SDS011;60000;51.030;7.024;2022-12-07T02:18:06;17.88;;;8.50;;
72127;SDS011;60000;51.030;7.024;2022-12-07T02:20:39;19.38;;;9.25;;
72127;SDS011;60000;51.030;7.024;2022-12-07T02:26:08;16.85;;;8.70;;
72127;SDS011;60000;51.030;7.024;2022-12-07T02:31:17;24.35;;;9.68;;
72127;SDS011;60000;51.030;7.024;2022-12-07T02:33:47;20.15;;;9.13;;
72127;SDS011;60000;51.030;7.024;2022-12-07T02:36:24;22.25;;;9.05;;
72127;SDS011;60000;51.030;7.024;2022-12-07T02:38:58;19.08;;;9.77;;
72127;SDS011;60000;51.030;7.024;2022-12-07T02:41:32;17.37;;;7.90;;
72127;SDS011;60000;51.030;7.024;2022-12-07T02:44:02;21.15;;;8.82;;
72127;SDS011;60000;51.030;7.024;2022-12-07T02:46:32;20.33;;;9.23;;
72127;SDS011;60000;51.030;7.024;2022-12-07T02:48:59;19.83;;;9.07;;
72127;SDS011;60000;51.030;7.024;2022-12-07T02:51:27;19.08;;;9.35;;
72127;SDS011;60000;51.030;7.024;2022-12-07T02:53:56;19.27;;;10.83;;
72127;SDS011;60000;51.030;7.024;2022-12-07T03:06:36;20.17;;;9.63;;
72127;SDS011;60000;51.030;7.024;2022-12-07T03:11:54;22.77;;;10.63;;
72127;SDS011;60000;51.030;7.024;2022-12-07T03:14:35;20.20;;;9.80;;
72127;SDS011;60000;51.030;7.024;2022-12-07T03:17:14;19.65;;;9.52;;
72127;SDS011;60000;51.030;7.024;2022-12-07T03:19:44;22.35;;;9.60;;
72127;SDS011;60000;51.030;7.024;2022-12-07T03:22:11;19.30;;;9.90;;
72127;SDS011;60000;51.030;7.024;2022-12-07T03:24:40;22.63;;;10.83;;
72127;SDS011;60000;51.030;7.024;2022-12-07T03:27:25;20.05;;;9.50;;
72127;SDS011;60000;51.030;7.024;2022-12-07T03:32:48;18.73;;;9.93;;
72127;SDS011;60000;51.030;7.024;2022-12-07T03:35:22;17.77;;;9.63;;
72127;SDS011;60000;51.030;7.024;2022-12-07T03:43:29;23.52;;;10.73;;
72127;SDS011;60000;51.030;7.024;2022-12-07T03:45:59;20.73;;;10.48;;
72127;SDS011;60000;51.030;7.024;2022-12-07T03:48:35;21.60;;;10.77;;
72127;SDS011;60000;51.030;7.024;2022-12-07T03:51:49;22.17;;;11.67;;
72127;SDS011;60000;51.030;7.024;2022-12-07T03:54:19;20.25;;;10.18;;
72127;SDS011;60000;51.030;7.024;2022-12-07T03:56:49;19.92;;;10.18;;
72127;SDS011;60000;51.030;7.024;2022-12-07T03:59:16;27.30;;;10.70;;
72127;SDS011;60000;51.030;7.024;2022-12-07T04:01:43;21.40;;;11.00;;
72127;SDS011;60000;51.030;7.024;2022-12-07T04:04:09;19.15;;;10.50;;
72127;SDS011;60000;51.030;7.024;2022-12-07T04:06:35;19.70;;;10.30;;
72127;SDS011;60000;51.030;7.024;2022-12-07T04:09:00;21.27;;;11.03;;
72127;SDS011;60000;51.030;7.024;2022-12-07T04:11:26;20.50;;;10.23;;
72127;SDS011;60000;51.030;7.024;2022-12-07T04:13:51;19.53;;;10.27;;
72127;SDS011;60000;51.030;7.024;2022-12-07T04:16:35;20.50;;;10.05;;
72127;SDS011;60000;51.030;7.024;2022-12-07T04:19:00;18.07;;;9.93;;
72127;SDS011;60000;51.030;7.024;2022-12-07T04:21:25;18.90;;;9.97;;
72127;SDS011;60000;51.030;7.024;2022-12-07T04:23:51;19.67;;;10.03;;
72127;SDS011;60000;51.030;7.024;2022-12-07T04:26:16;21.30;;;10.27;;
72127;SDS011;60000;51.030;7.024;2022-12-07T04:28:41;22.87;;;10.87;;
72127;SDS011;60000;51.030;7.024;2022-12-07T04:31:06;22.50;;;11.03;;
72127;SDS011;60000;51.030;7.024;2022-12-07T04:33:32;20.37;;;9.63;;
72127;SDS011;60000;51.030;7.024;2022-12-07T04:35:57;19.27;;;9.60;;
72127;SDS011;60000;51.030;7.024;2022-12-07T04:38:22;21.80;;;10.88;;
72127;SDS011;60000;51.030;7.024;2022-12-07T04:40:48;22.37;;;10.10;;
72127;SDS011;60000;51.030;7.024;2022-12-07T04:43:13;22.40;;;9.07;;
72127;SDS011;60000;51.030;7.024;2022-12-07T04:45:38;16.97;;;8.50;;
72127;SDS011;60000;51.030;7.024;2022-12-07T04:48:04;20.00;;;9.50;;
72127;SDS011;60000;51.030;7.024;2022-12-07T04:50:29;17.60;;;9.30;;
72127;SDS011;60000;51.030;7.024;2022-12-07T04:52:54;20.13;;;9.60;;
72127;SDS011;60000;51.030;7.024;2022-12-07T04:55:20;19.47;;;9.03;;
72127;SDS011;60000;51.030;7.024;2022-12-07T04:57:45;25.80;;;9.40;;
72127;SDS011;60000;51.030;7.024;2022-12-07T05:00:10;20.25;;;10.57;;
72127;SDS011;60000;51.030;7.024;2022-12-07T05:02:36;20.30;;;9.47;;
72127;SDS011;60000;51.030;7.024;2022-12-07T05:05:01;19.67;;;9.67;;
72127;SDS011;60000;51.030;7.024;2022-12-07T05:07:26;17.73;;;9.00;;
72127;SDS011;60000;51.030;7.024;2022-12-07T05:09:52;20.30;;;9.67;;
72127;SDS011;60000;51.030;7.024;2022-12-07T05:12:17;20.27;;;10.23;;
72127;SDS011;60000;51.030;7.024;2022-12-07T05:14:42;22.43;;;10.37;;
72127;SDS011;60000;51.030;7.024;2022-12-07T05:17:08;18.50;;;8.60;;
72127;SDS011;60000;51.030;7.024;2022-12-07T05:19:33;20.77;;;9.75;;
72127;SDS011;60000;51.030;7.024;2022-12-07T05:21:58;21.97;;;9.90;;
72127;SDS011;60000;51.030;7.024;2022-12-07T05:24:23;18.67;;;9.50;;
72127;SDS011;60000;51.030;7.024;2022-12-07T05:26:49;19.20;;;9.73;;
72127;SDS011;60000;51.030;7.024;2022-12-07T05:29:15;19.60;;;9.57;;
72127;SDS011;60000;51.030;7.024;2022-12-07T05:31:41;21.65;;;11.45;;
72127;SDS011;60000;51.030;7.024;2022-12-07T05:34:07;20.90;;;9.15;;
72127;SDS011;60000;51.030;7.024;2022-12-07T05:36:33;18.55;;;9.30;;
72127;SDS011;60000;51.030;7.024;2022-12-07T05:38:58;21.63;;;10.20;;
72127;SDS011;60000;51.030;7.024;2022-12-07T05:41:23;19.67;;;10.13;;
72127;SDS011;60000;51.030;7.024;2022-12-07T05:44:07;20.15;;;9.65;;
72127;SDS011;60000;51.030;7.024;2022-12-07T05:46:33;21.90;;;10.10;;
72127;SDS011;60000;51.030;7.024;2022-12-07T05:48:59;18.67;;;9.77;;
72127;SDS011;60000;51.030;7.024;2022-12-07T05:51:25;21.20;;;10.38;;
72127;SDS011;60000;51.030;7.024;2022-12-07T05:53:50;19.03;;;9.70;;
72127;SDS011;60000;51.030;7.024;2022-12-07T05:56:15;22.10;;;10.37;;
72127;SDS011;60000;51.030;7.024;2022-12-07T05:58:41;18.87;;;8.87;;
72127;SDS011;60000;51.030;7.024;2022-12-07T06:01:25;16.77;;;8.50;;
72127;SDS011;60000;51.030;7.024;2022-12-07T06:03:50;18.00;;;8.50;;
72127;SDS011;60000;51.030;7.024;2022-12-07T06:06:15;18.97;;;8.47;;
72127;SDS011;60000;51.030;7.024;2022-12-07T06:08:41;20.33;;;8.67;;
72127;SDS011;60000;51.030;7.024;2022-12-07T06:11:06;19.20;;;9.37;;
72127;SDS011;60000;51.030;7.024;2022-12-07T06:13:50;17.58;;;8.65;;
72127;SDS011;60000;51.030;7.024;2022-12-07T06:16:15;15.67;;;8.27;;
72127;SDS011;60000;51.030;7.024;2022-12-07T06:18:41;15.80;;;8.37;;
72127;SDS011;60000;51.030;7.024;2022-12-07T06:21:06;17.10;;;8.13;;
72127;SDS011;60000;51.030;7.024;2022-12-07T06:23:31;16.37;;;7.53;;
72127;SDS011;60000;51.030;7.024;2022-12-07T06:25:56;15.38;;;7.20;;
72127;SDS011;60000;51.030;7.024;2022-12-07T06:28:22;19.60;;;8.53;;
72127;SDS011;60000;51.030;7.024;2022-12-07T06:30:47;17.17;;;7.93;;
72127;SDS011;60000;51.030;7.024;2022-12-07T06:33:12;17.67;;;8.03;;
72127;SDS011;60000;51.030;7.024;2022-12-07T06:35:38;19.17;;;8.43;;
72127;SDS011;60000;51.030;7.024;2022-12-07T06:38:03;17.47;;;8.03;;
72127;SDS011;60000;51.030;7.024;2022-12-07T06:40:28;19.63;;;9.13;;
72127;SDS011;60000;51.030;7.024;2022-12-07T06:42:53;15.90;;;7.50;;
72127;SDS011;60000;51.030;7.024;2022-12-07T06:45:19;17.07;;;7.97;;
72127;SDS011;60000;51.030;7.024;2022-12-07T06:47:44;18.40;;;8.23;;
72127;SDS011;60000;51.030;7.024;2022-12-07T06:50:09;19.80;;;8.70;;
72127;SDS011;60000;51.030;7.024;2022-12-07T06:52:35;18.47;;;8.17;;
72127;SDS011;60000;51.030;7.024;2022-12-07T06:55:00;19.67;;;9.07;;
72127;SDS011;60000;51.030;7.024;2022-12-07T06:57:26;22.67;;;10.60;;
72127;SDS011;60000;51.030;7.024;2022-12-07T06:59:51;20.00;;;10.17;;
72127;SDS011;60000;51.030;7.024;2022-12-07T07:02:16;19.93;;;8.93;;
72127;SDS011;60000;51.030;7.024;2022-12-07T07:04:42;17.15;;;7.93;;
72127;SDS011;60000;51.030;7.024;2022-12-07T07:07:07;15.80;;;8.47;;
72127;SDS011;60000;51.030;7.024;2022-12-07T07:09:32;16.70;;;8.37;;
72127;SDS011;60000;51.030;7.024;2022-12-07T07:11:58;15.33;;;7.27;;
72127;SDS011;60000;51.030;7.024;2022-12-07T07:14:23;16.37;;;8.10;;
72127;SDS011;60000;51.030;7.024;2022-12-07T07:16:48;19.10;;;8.13;;
72127;SDS011;60000;51.030;7.024;2022-12-07T07:19:14;21.27;;;8.40;;
72127;SDS011;60000;51.030;7.024;2022-12-07T07:21:39;15.17;;;7.50;;
72127;SDS011;60000;51.030;7.024;2022-12-07T07:24:04;18.65;;;8.18;;
72127;SDS011;60000;51.030;7.024;2022-12-07T07:26:30;21.63;;;9.00;;
72127;SDS011;60000;51.030;7.024;2022-12-07T07:28:55;19.53;;;8.73;;
72127;SDS011;60000;51.030;7.024;2022-12-07T07:31:21;19.13;;;9.27;;
72127;SDS011;60000;51.030;7.024;2022-12-07T07:33:46;20.47;;;8.87;;
72127;SDS011;60000;51.030;7.024;2022-12-07T07:36:12;17.33;;;7.93;;
72127;SDS011;60000;51.030;7.024;2022-12-07T07:38:37;23.83;;;9.40;;
72127;SDS011;60000;51.030;7.024;2022-12-07T07:41:03;26.23;;;11.38;;
72127;SDS011;60000;51.030;7.024;2022-12-07T07:43:28;19.77;;;9.45;;
72127;SDS011;60000;51.030;7.024;2022-12-07T07:45:54;20.30;;;9.53;;
72127;SDS011;60000;51.030;7.024;2022-12-07T07:48:19;25.47;;;13.00;;
72127;SDS011;60000;51.030;7.024;2022-12-07T07:50:44;21.30;;;10.20;;
72127;SDS011;60000;51.030;7.024;2022-12-07T07:53:10;17.73;;;8.77;;
72127;SDS011;60000;51.030;7.024;2022-12-07T07:55:35;15.50;;;7.57;;
72127;SDS011;60000;51.030;7.024;2022-12-07T07:58:00;19.52;;;8.23;;
72127;SDS011;60000;51.030;7.024;2022-12-07T08:00:26;14.43;;;8.05;;
72127;SDS011;60000;51.030;7.024;2022-12-07T08:02:51;17.00;;;7.47;;
72127;SDS011;60000;51.030;7.024;2022-12-07T08:05:16;22.27;;;7.83;;
72127;SDS011;60000;51.030;7.024;2022-12-07T08:07:42;12.97;;;7.30;;
72127;SDS011;60000;51.030;7.024;2022-12-07T08:10:09;16.95;;;7.65;;
72127;SDS011;60000;51.030;7.024;2022-12-07T08:12:40;15.27;;;7.72;;
72127;SDS011;60000;51.030;7.024;2022-12-07T08:15:26;15.13;;;7.10;;
72127;SDS011;60000;51.030;7.024;2022-12-07T08:17:52;15.13;;;7.20;;
72127;SDS011;60000;51.030;7.024;2022-12-07T08:20:18;19.73;;;7.97;;
72127;SDS011;60000;51.030;7.024;2022-12-07T08:22:44;16.37;;;8.00;;
72127;SDS011;60000;51.030;7.024;2022-12-07T08:25:09;15.07;;;7.10;;
72127;SDS011;60000;51.030;7.024;2022-12-07T08:27:34;14.63;;;7.10;;
72127;SDS011;60000;51.030;7.024;2022-12-07T08:29:59;13.47;;;6.97;;
72127;SDS011;60000;51.030;7.024;2022-12-07T08:32:25;18.00;;;8.03;;
72127;SDS011;60000;51.030;7.024;2022-12-07T08:34:51;19.92;;;7.60;;
72127;SDS011;60000;51.030;7.024;2022-12-07T08:37:17;16.00;;;7.30;;
72127;SDS011;60000;51.030;7.024;2022-12-07T08:39:42;17.27;;;8.20;;
72127;SDS011;60000;51.030;7.024;2022-12-07T08:42:08;17.57;;;7.73;;
72127;SDS011;60000;51.030;7.024;2022-12-07T08:44:33;15.43;;;6.63;;
72127;SDS011;60000;51.030;7.024;2022-12-07T08:46:59;15.53;;;7.23;;
72127;SDS011;60000;51.030;7.024;2022-12-07T08:50:02;13.33;;;7.03;;
72127;SDS011;60000;51.030;7.024;2022-12-07T08:52:20;18.02;;;7.43;;
72127;SDS011;60000;51.030;7.024;2022-12-07T08:54:46;18.35;;;7.68;;
72127;SDS011;60000;51.030;7.024;2022-12-07T08:57:12;15.25;;;7.25;;
72127;SDS011;60000;51.030;7.024;2022-12-07T08:59:37;17.23;;;6.60;;
72127;SDS011;60000;51.030;7.024;2022-12-07T09:02:03;17.83;;;7.43;;
72127;SDS011;60000;51.030;7.024;2022-12-07T09:04:30;17.58;;;7.25;;
72127;SDS011;60000;51.030;7.024;2022-12-07T09:06:55;14.40;;;7.63;;
72127;SDS011;60000;51.030;7.024;2022-12-07T09:09:21;15.35;;;7.65;;
72127;SDS011;60000;51.030;7.024;2022-12-07T09:11:46;16.23;;;7.07;;
72127;SDS011;60000;51.030;7.024;2022-12-07T09:14:12;14.10;;;7.53;;
72127;SDS011;60000;51.030;7.024;2022-12-07T09:16:37;15.95;;;7.63;;
72127;SDS011;60000;51.030;7.024;2022-12-07T09:19:03;15.13;;;6.73;;
72127;SDS011;60000;51.030;7.024;2022-12-07T09:21:29;15.63;;;7.63;;
72127;SDS011;60000;51.030;7.024;2022-12-07T09:23:54;16.03;;;7.70;;
72127;SDS011;60000;51.030;7.024;2022-12-07T09:26:19;16.03;;;8.17;;
72127;SDS011;60000;51.030;7.024;2022-12-07T09:28:45;15.63;;;7.40;;
72127;SDS011;60000;51.030;7.024;2022-12-07T09:31:10;13.90;;;7.60;;
72127;SDS011;60000;51.030;7.024;2022-12-07T09:33:35;17.23;;;8.73;;
72127;SDS011;60000;51.030;7.024;2022-12-07T09:36:01;20.97;;;8.23;;
72127;SDS011;60000;51.030;7.024;2022-12-07T09:38:28;13.88;;;7.03;;
72127;SDS011;60000;51.030;7.024;2022-12-07T09:40:55;17.40;;;6.97;;
72127;SDS011;60000;51.030;7.024;2022-12-07T09:43:22;14.45;;;6.65;;
72127;SDS011;60000;51.030;7.024;2022-12-07T09:45:49;14.30;;;7.37;;
72127;SDS011;60000;51.030;7.024;2022-12-07T09:48:20;17.27;;;7.85;;
72127;SDS011;60000;51.030;7.024;2022-12-07T09:50:47;14.48;;;7.32;;
72127;SDS011;60000;51.030;7.024;2022-12-07T09:53:15;13.80;;;6.28;;
72127;SDS011;60000;51.030;7.024;2022-12-07T09:55:47;16.23;;;7.45;;
72127;SDS011;60000;51.030;7.024;2022-12-07T09:58:23;17.40;;;6.87;;
72127;SDS011;60000;51.030;7.024;2022-12-07T10:01:05;15.13;;;7.20;;
72127;SDS011;60000;51.030;7.024;2022-12-07T10:03:37;19.90;;;6.43;;
72127;SDS011;60000;51.030;7.024;2022-12-07T10:06:04;16.45;;;6.47;;
72127;SDS011;60000;51.030;7.024;2022-12-07T10:08:30;18.67;;;7.32;;
72127;SDS011;60000;51.030;7.024;2022-12-07T10:10:56;21.08;;;9.20;;
72127;SDS011;60000;51.030;7.024;2022-12-07T10:13:34;17.87;;;6.73;;
72127;SDS011;60000;51.030;7.024;2022-12-07T10:16:00;17.23;;;6.55;;
72127;SDS011;60000;51.030;7.024;2022-12-07T10:18:33;15.20;;;6.85;;
72127;SDS011;60000;51.030;7.024;2022-12-07T10:23:35;17.55;;;6.93;;
72127;SDS011;60000;51.030;7.024;2022-12-07T10:26:25;15.13;;;6.40;;
72127;SDS011;60000;51.030;7.024;2022-12-07T10:28:52;15.05;;;7.57;;
72127;SDS011;60000;51.030;7.024;2022-12-07T10:31:18;20.13;;;9.47;;
72127;SDS011;60000;51.030;7.024;2022-12-07T10:33:56;17.25;;;7.10;;
72127;SDS011;60000;51.030;7.024;2022-12-07T10:36:29;17.17;;;5.75;;
72127;SDS011;60000;51.030;7.024;2022-12-07T10:39:02;10.80;;;5.03;;
72127;SDS011;60000;51.030;7.024;2022-12-07T10:41:34;15.63;;;5.63;;
72127;SDS011;60000;51.030;7.024;2022-12-07T10:43:59;14.27;;;5.80;;
72127;SDS011;60000;51.030;7.024;2022-12-07T10:49:17;12.50;;;4.65;;
72127;SDS011;60000;51.030;7.024;2022-12-07T11:00:14;15.10;;;5.10;;
72127;SDS011;60000;51.030;7.024;2022-12-07T11:02:47;12.45;;;4.22;;
72127;SDS011;60000;51.030;7.024;2022-12-07T11:08:31;11.25;;;3.88;;
72127;SDS011;60000;51.030;7.024;2022-12-07T11:20:11;11.38;;;4.07;;
72127;SDS011;60000;51.030;7.024;2022-12-07T11:22:50;11.32;;;3.83;;
72127;SDS011;60000;51.030;7.024;2022-12-07T11:28:25;12.97;;;4.07;;
72127;SDS011;60000;51.030;7.024;2022-12-07T11:31:15;12.05;;;4.07;;
72127;SDS011;60000;51.030;7.024;2022-12-07T11:33:49;11.77;;;4.78;;
72127;SDS011;60000;51.030;7.024;2022-12-07T11:36:23;10.57;;;4.22;;
72127;SDS011;60000;51.030;7.024;2022-12-07T11:41:43;13.07;;;4.33;;
72127;SDS011;60000;51.030;7.024;2022-12-07T11:47:07;11.98;;;4.38;;
72127;SDS011;60000;51.030;7.024;2022-12-07T11:49:45;12.23;;;3.75;;
72127;SDS011;60000;51.030;7.024;2022-12-07T11:52:32;10.02;;;4.47;;
72127;SDS011;60000;51.030;7.024;2022-12-07T11:55:15;11.70;;;4.73;;
72127;SDS011;60000;51.030;7.024;2022-12-07T11:58:11;12.02;;;4.60;;
72127;SDS011;60000;51.030;7.024;2022-12-07T12:00:46;10.77;;;4.70;;
72127;SDS011;60000;51.030;7.024;2022-12-07T12:03:15;11.30;;;4.00;;
72127;SDS011;60000;51.030;7.024;2022-12-07T12:05:55;11.27;;;4.50;;
72127;SDS011;60000;51.030;7.024;2022-12-07T12:08:27;12.47;;;4.60;;
72127;SDS011;60000;51.030;7.024;2022-12-07T12:14:00;8.75;;;3.97;;
72127;SDS011;60000;51.030;7.024;2022-12-07T12:19:23;9.73;;;4.13;;
72127;SDS011;60000;51.030;7.024;2022-12-07T12:22:15;11.60;;;4.47;;
72127;SDS011;60000;51.030;7.024;2022-12-07T12:24:43;11.57;;;4.97;;
72127;SDS011;60000;51.030;7.024;2022-12-07T12:27:23;10.23;;;4.35;;
72127;SDS011;60000;51.030;7.024;2022-12-07T12:29:54;11.75;;;4.13;;
72127;SDS011;60000;51.030;7.024;2022-12-07T12:40:55;12.52;;;4.43;;
72127;SDS011;60000;51.030;7.024;2022-12-07T12:46:35;14.27;;;5.10;;
72127;SDS011;60000;51.030;7.024;2022-12-07T12:51:42;12.48;;;4.13;;
72127;SDS011;60000;51.030;7.024;2022-12-07T12:54:14;10.65;;;4.80;;
72127;SDS011;60000;51.030;7.024;2022-12-07T12:59:55;10.57;;;4.13;;
72127;SDS011;60000;51.030;7.024;2022-12-07T13:33:49;11.37;;;3.80;;
72127;SDS011;60000;51.030;7.024;2022-12-07T13:36:47;9.23;;;3.30;;
72127;SDS011;60000;51.030;7.024;2022-12-07T13:41:43;9.32;;;3.17;;
72127;SDS011;60000;51.030;7.024;2022-12-07T13:44:12;11.73;;;3.40;;
72127;SDS011;60000;51.030;7.024;2022-12-07T13:46:57;9.60;;;2.88;;
72127;SDS011;60000;51.030;7.024;2022-12-07T13:49:45;9.87;;;3.57;;
72127;SDS011;60000;51.030;7.024;2022-12-07T13:52:16;12.90;;;3.97;;
72127;SDS011;60000;51.030;7.024;2022-12-07T13:55:29;15.38;;;3.63;;
72127;SDS011;60000;51.030;7.024;2022-12-07T13:57:29;9.07;;;3.63;;
72127;SDS011;60000;51.030;7.024;2022-12-07T13:59:56;8.13;;;2.28;;
72127;SDS011;60000;51.030;7.024;2022-12-07T14:02:26;10.73;;;3.60;;
72127;SDS011;60000;51.030;7.024;2022-12-07T14:07:58;9.35;;;3.00;;
72127;SDS011;60000;51.030;7.024;2022-12-07T14:10:26;13.50;;;3.63;;
72127;SDS011;60000;51.030;7.024;2022-12-07T14:12:52;12.65;;;3.45;;
72127;SDS011;60000;51.030;7.024;2022-12-07T14:15:21;11.47;;;3.80;;
72127;SDS011;60000;51.030;7.024;2022-12-07T14:17:49;7.32;;;2.65;;
72127;SDS011;60000;51.030;7.024;2022-12-07T14:23:05;12.38;;;3.33;;
72127;SDS011;60000;51.030;7.024;2022-12-07T14:31:11;9.18;;;3.50;;
72127;SDS011;60000;51.030;7.024;2022-12-07T14:33:41;9.70;;;3.70;;
72127;SDS011;60000;51.030;7.024;2022-12-07T14:36:13;11.27;;;3.70;;
72127;SDS011;60000;51.030;7.024;2022-12-07T14:38:39;12.90;;;3.63;;
72127;SDS011;60000;51.030;7.024;2022-12-07T14:41:06;8.75;;;3.03;;
72127;SDS011;60000;51.030;7.024;2022-12-07T14:43:56;12.73;;;4.53;;
72127;SDS011;60000;51.030;7.024;2022-12-07T14:46:21;12.98;;;4.13;;
72127;SDS011;60000;51.030;7.024;2022-12-07T14:48:47;9.27;;;3.43;;
72127;SDS011;60000;51.030;7.024;2022-12-07T14:51:13;11.43;;;3.93;;
72127;SDS011;60000;51.030;7.024;2022-12-07T14:53:39;8.00;;;3.80;;
72127;SDS011;60000;51.030;7.024;2022-12-07T14:56:07;12.90;;;3.63;;
72127;SDS011;60000;51.030;7.024;2022-12-07T14:58:33;10.63;;;3.47;;
72127;SDS011;60000;51.030;7.024;2022-12-07T15:00:58;13.60;;;4.50;;
72127;SDS011;60000;51.030;7.024;2022-12-07T15:03:24;14.50;;;4.80;;
72127;SDS011;60000;51.030;7.024;2022-12-07T15:05:49;10.90;;;4.57;;
72127;SDS011;60000;51.030;7.024;2022-12-07T15:08:15;16.00;;;5.77;;
72127;SDS011;60000;51.030;7.024;2022-12-07T15:10:40;18.47;;;6.00;;
72127;SDS011;60000;51.030;7.024;2022-12-07T15:13:06;12.70;;;5.40;;
72127;SDS011;60000;51.030;7.024;2022-12-07T15:15:51;13.75;;;5.85;;
72127;SDS011;60000;51.030;7.024;2022-12-07T15:18:18;13.88;;;6.72;;
72127;SDS011;60000;51.030;7.024;2022-12-07T15:20:44;9.57;;;4.72;;
72127;SDS011;60000;51.030;7.024;2022-12-07T15:23:10;14.73;;;4.70;;
72127;SDS011;60000;51.030;7.024;2022-12-07T15:25:36;15.07;;;5.28;;
72127;SDS011;60000;51.030;7.024;2022-12-07T15:28:02;13.33;;;5.10;;
72127;SDS011;60000;51.030;7.024;2022-12-07T15:30:27;13.68;;;5.00;;
72127;SDS011;60000;51.030;7.024;2022-12-07T15:32:53;10.47;;;4.73;;
72127;SDS011;60000;51.030;7.024;2022-12-07T15:35:19;11.68;;;4.22;;
72127;SDS011;60000;51.030;7.024;2022-12-07T15:37:45;13.90;;;5.07;;
72127;SDS011;60000;51.030;7.024;2022-12-07T15:40:11;11.65;;;5.00;;
72127;SDS011;60000;51.030;7.024;2022-12-07T15:42:37;7.72;;;2.83;;
72127;SDS011;60000;51.030;7.024;2022-12-07T15:45:03;9.57;;;2.70;;
72127;SDS011;60000;51.030;7.024;2022-12-07T15:47:50;6.78;;;2.67;;
72127;SDS011;60000;51.030;7.024;2022-12-07T15:50:15;7.63;;;2.57;;
72127;SDS011;60000;51.030;7.024;2022-12-07T15:52:42;7.97;;;2.63;;
72127;SDS011;60000;51.030;7.024;2022-12-07T15:55:08;9.65;;;3.08;;
72127;SDS011;60000;51.030;7.024;2022-12-07T15:57:35;7.70;;;3.20;;
72127;SDS011;60000;51.030;7.024;2022-12-07T16:00:02;9.43;;;2.92;;
72127;SDS011;60000;51.030;7.024;2022-12-07T16:02:31;6.83;;;2.60;;
72127;SDS011;60000;51.030;7.024;2022-12-07T16:04:56;18.13;;;3.75;;
72127;SDS011;60000;51.030;7.024;2022-12-07T16:07:22;6.85;;;2.75;;
72127;SDS011;60000;51.030;7.024;2022-12-07T16:09:47;8.20;;;2.97;;
72127;SDS011;60000;51.030;7.024;2022-12-07T16:12:14;9.25;;;3.03;;
72127;SDS011;60000;51.030;7.024;2022-12-07T16:14:40;6.97;;;2.43;;
72127;SDS011;60000;51.030;7.024;2022-12-07T16:17:05;9.50;;;3.17;;
72127;SDS011;60000;51.030;7.024;2022-12-07T16:19:32;9.30;;;3.13;;
72127;SDS011;60000;51.030;7.024;2022-12-07T16:21:57;7.43;;;3.47;;
72127;SDS011;60000;51.030;7.024;2022-12-07T16:24:24;7.97;;;3.50;;
72127;SDS011;60000;51.030;7.024;2022-12-07T16:26:49;7.57;;;3.33;;
72127;SDS011;60000;51.030;7.024;2022-12-07T16:29:14;7.57;;;3.03;;
72127;SDS011;60000;51.030;7.024;2022-12-07T16:31:41;9.10;;;3.28;;
72127;SDS011;60000;51.030;7.024;2022-12-07T16:34:07;8.25;;;3.30;;
72127;SDS011;60000;51.030;7.024;2022-12-07T16:36:34;13.73;;;4.37;;
72127;SDS011;60000;51.030;7.024;2022-12-07T16:38:59;10.85;;;3.30;;
72127;SDS011;60000;51.030;7.024;2022-12-07T16:41:25;7.63;;;3.20;;
72127;SDS011;60000;51.030;7.024;2022-12-07T16:43:50;8.00;;;3.40;;
72127;SDS011;60000;51.030;7.024;2022-12-07T16:46:16;7.60;;;3.60;;
72127;SDS011;60000;51.030;7.024;2022-12-07T16:48:42;11.60;;;3.50;;
72127;SDS011;60000;51.030;7.024;2022-12-07T16:51:08;8.73;;;3.85;;
72127;SDS011;60000;51.030;7.024;2022-12-07T16:53:37;10.82;;;4.10;;
72127;SDS011;60000;51.030;7.024;2022-12-07T16:56:04;12.05;;;4.55;;